KBWG/BWG METAR and TAF weather

Enter ICAO airport designator
Station Type Date Time Source
KBWG METAR 2019/08/24 08:53 UTC NOAA

KBWG 240853Z AUTO 04006KT 10SM CLR 20/15 A3010 RMK AO2 SLP186 T02000150 55002


Station Type Date Time Source
KBWG Decoded METAR 2019/08/24 08:53 UTC NOAA

Station name not available
Aug 24, 2019 - 04:53 AM EDT / 2019.08.24 0853 UTC
Wind: from the NE (040 degrees) at 7 MPH (6 KT):0
Visibility: 10 mile(s):0
Sky conditions: clear
Temperature: 68.0 F (20.0 C)
Dew Point: 59.0 F (15.0 C)
Relative Humidity: 72%
Pressure (altimeter): 30.1 in. Hg (1019 hPa)
Pressure tendency: 0.01 inches (0.2 hPa) lower than three hours ago
ob: KBWG 240853Z AUTO 04006KT 10SM CLR 20/15 A3010 RMK AO2 SLP186 T02000150 55002
cycle: 9

Station Type Date Time Source
KBWG TAF 2019/08/24 06:36 UTC NOAA

TAF KBWG 240534Z 2406/2506 05006KT P6SM FEW035 BKN150
FM241400 07010KT P6SM SCT050 BKN250
TEMPO 2414/2418 BKN050
FM250000 05004KT P6SM BKN250

Example: see airport list